Time;durP1;ratioP1;P1;durP2;ratioP2;P2;SDS_P1;SDS_P2;PMS_P1;PMS_P2;Temp;Humidity;BMP_temperature;BMP_pressure;BME280_temperature;BME280_humidity;BME280_pressure;Samples;Min_cycle;Max_cycle;Signal;HPM_P1;HPM_P2
2023/02/10 00:01:15;;;;;;;29.83;14.48;;;;;;;-0.44;47.73;99431.13;10503115;28;20070;-77
2023/02/10 00:06:36;;;;;;;29.20;14.93;;;;;;;-0.45;47.29;99426.88;10531028;28;20060;-76
2023/02/10 00:11:56;;;;;;;31.25;16.70;;;;;;;-0.37;47.55;99428.72;10517086;28;20117;-76
2023/02/10 00:17:18;;;;;;;31.08;15.90;;;;;;;-0.35;47.93;99418.03;10530582;28;20470;-76
2023/02/10 00:22:39;;;;;;;33.22;17.52;;;;;;;-0.46;47.81;99415.13;10544791;28;20048;-76
2023/02/10 00:28:00;;;;;;;33.30;17.10;;;;;;;-0.62;48.16;99424.66;10516259;28;20432;-76
2023/02/10 00:33:21;;;;;;;33.25;16.50;;;;;;;-0.72;48.66;99425.25;10530228;28;20044;-76
2023/02/10 00:38:42;;;;;;;33.33;17.52;;;;;;;-0.80;49.14;99424.88;10529786;28;20044;-76
2023/02/10 00:44:03;;;;;;;32.97;16.17;;;;;;;-0.81;48.43;99428.13;10528956;28;20040;-76
2023/02/10 00:49:24;;;;;;;38.42;19.02;;;;;;;-0.82;49.53;99418.38;10530186;28;20436;-76
2023/02/10 00:54:45;;;;;;;38.13;18.83;;;;;;;-0.94;49.93;99420.22;10515252;28;20142;-76
2023/02/10 01:00:06;;;;;;;32.10;16.92;;;;;;;-1.03;49.08;99412.84;10514988;28;20477;-77
2023/02/10 01:05:27;;;;;;;34.17;17.83;;;;;;;-1.12;51.82;99414.94;10500799;28;20059;-76
2023/02/10 01:10:48;;;;;;;33.13;17.15;;;;;;;-1.13;50.90;99405.97;10528494;28;20040;-76
2023/02/10 01:16:11;;;;;;;30.42;16.58;;;;;;;-1.16;50.94;99390.47;10528246;28;20048;-76
2023/02/10 01:21:32;;;;;;;29.67;14.37;;;;;;;-1.21;51.18;99383.69;10514905;28;20389;-76
2023/02/10 01:26:54;;;;;;;38.63;19.92;;;;;;;-1.26;51.37;99389.81;10528262;28;20123;-76
2023/02/10 01:32:15;;;;;;;37.88;19.70;;;;;;;-1.32;53.51;99393.72;10527759;28;20521;-76
2023/02/10 01:37:37;;;;;;;35.85;18.60;;;;;;;-1.39;52.60;99392.09;10542082;28;20036;-76
2023/02/10 01:42:58;;;;;;;35.88;18.35;;;;;;;-1.49;52.37;99393.44;10527896;28;20070;-76
2023/02/10 01:48:19;;;;;;;37.47;18.88;;;;;;;-1.53;53.09;99392.88;10527248;28;20040;-76
2023/02/10 01:53:40;;;;;;;37.47;20.08;;;;;;;-1.48;52.96;99406.66;10512743;28;20096;-76
2023/02/10 01:59:01;;;;;;;37.38;18.73;;;;;;;-1.49;53.24;99405.16;10512769;28;20036;-77
2023/02/10 02:04:22;;;;;;;34.65;18.83;;;;;;;-1.47;54.23;99408.16;10527165;28;20497;-76
2023/02/10 02:09:43;;;;;;;40.63;19.67;;;;;;;-1.45;54.25;99413.94;10498485;28;20078;-76
2023/02/10 02:15:14;;;;;;;40.47;19.42;;;;;;;-1.44;53.65;99401.00;10498765;28;20093;-76
2023/02/10 02:20:41;;;;;;;35.70;18.23;;;;;;;-1.49;55.00;99407.88;10512315;28;20036;-76
2023/02/10 02:26:17;;;;;;;33.72;18.05;;;;;;;-1.53;53.57;99415.53;10511776;28;20036;-76
2023/02/10 02:31:56;;;;;;;31.55;17.13;;;;;;;-1.60;53.92;99415.91;10511347;28;20044;-76
2023/02/10 02:37:21;;;;;;;35.20;18.73;;;;;;;-1.62;54.75;99415.63;10511115;28;20148;-76
2023/02/10 02:42:42;;;;;;;32.45;18.05;;;;;;;-1.62;55.37;99418.38;10511711;28;20085;-76
2023/02/10 02:48:11;;;;;;;31.60;16.58;;;;;;;-1.67;55.12;99424.50;10483859;28;20064;-76
2023/02/10 02:53:58;;;;;;;32.95;17.20;;;;;;;-1.67;55.07;99429.97;10524896;28;20051;-76
2023/02/10 02:59:34;;;;;;;31.48;17.15;;;;;;;-1.77;55.54;99434.03;10491717;28;20107;-76
2023/02/10 03:04:55;;;;;;;30.80;16.50;;;;;;;-1.83;55.54;99436.69;10531266;28;20105;-76
2023/02/10 03:10:18;;;;;;;30.80;16.42;;;;;;;-1.85;55.72;99432.88;10497454;28;20488;-76
2023/02/10 03:15:38;;;;;;;31.52;17.17;;;;;;;-1.89;55.85;99418.63;10525093;28;20375;-76
2023/02/10 03:20:59;;;;;;;30.58;16.38;;;;;;;-1.93;56.50;99424.28;10510249;28;20063;-76
2023/02/10 03:26:20;;;;;;;33.55;16.85;;;;;;;-1.94;55.98;99422.00;10510157;28;20048;-76
2023/02/10 03:31:41;;;;;;;35.53;18.65;;;;;;;-1.97;56.05;99431.91;10509939;28;20047;-76
2023/02/10 03:37:03;;;;;;;30.58;16.85;;;;;;;-1.99;56.66;99442.59;10497619;28;20040;-76
2023/02/10 03:42:23;;;;;;;36.08;18.45;;;;;;;-2.01;56.78;99450.50;10496119;28;20064;-76
2023/02/10 03:47:44;;;;;;;37.20;17.55;;;;;;;-2.05;56.95;99453.41;10495524;28;20044;-76
2023/02/10 03:53:05;;;;;;;34.10;18.45;;;;;;;-2.07;57.11;99466.81;10496006;28;20422;-76
2023/02/10 03:58:26;;;;;;;31.70;17.30;;;;;;;-2.08;57.27;99459.81;10496084;28;20477;-76
2023/02/10 04:03:47;;;;;;;34.80;18.05;;;;;;;-2.14;57.41;99474.59;10523620;28;20469;-76
2023/02/10 04:09:07;;;;;;;37.55;18.80;;;;;;;-2.19;57.58;99465.06;10509521;28;20048;-76
2023/02/10 04:14:28;;;;;;;32.42;17.50;;;;;;;-2.26;57.32;99475.59;10508169;28;20051;-76
2023/02/10 04:19:49;;;;;;;34.80;16.98;;;;;;;-2.27;57.13;99474.84;10502870;28;20506;-76
2023/02/10 04:25:10;;;;;;;34.30;18.38;;;;;;;-2.26;58.14;99470.13;10502517;28;20040;-76
2023/02/10 04:30:30;;;;;;;33.58;17.08;;;;;;;-2.30;57.63;99481.25;10488467;28;20451;-76
2023/02/10 04:35:52;;;;;;;30.52;16.70;;;;;;;-2.31;57.58;99480.50;10502768;28;20040;-76
2023/02/10 04:41:13;;;;;;;31.10;16.52;;;;;;;-2.33;58.11;99491.13;10516120;28;20054;-76
2023/02/10 04:46:34;;;;;;;33.80;17.85;;;;;;;-2.34;58.17;99491.59;10502219;28;20089;-76
2023/02/10 04:51:57;;;;;;;34.47;18.33;;;;;;;-2.35;58.49;99495.56;10502266;28;20040;-77
2023/02/10 04:57:19;;;;;;;38.40;18.83;;;;;;;-2.35;59.09;99496.31;10505311;28;20036;-77
2023/02/10 05:02:40;;;;;;;32.22;17.02;;;;;;;-2.35;58.59;99490.84;10515265;28;20550;-76
2023/02/10 05:08:01;;;;;;;36.35;17.73;;;;;;;-2.33;58.66;99495.84;10500718;28;20055;-76
2023/02/10 05:13:22;;;;;;;34.83;18.88;;;;;;;-2.35;59.00;99493.59;10513092;28;20676;-76
2023/02/10 05:18:43;;;;;;;35.50;18.27;;;;;;;-2.41;58.77;99513.84;10486574;28;20474;-77
2023/02/10 05:24:04;;;;;;;35.40;19.40;;;;;;;-2.47;59.69;99521.16;10500748;28;20044;-77
2023/02/10 05:29:25;;;;;;;31.60;18.35;;;;;;;-2.47;59.56;99526.63;10462772;28;20482;-77
2023/02/10 05:34:47;;;;;;;33.65;18.17;;;;;;;-2.53;59.26;99534.69;10489433;28;20040;-78
2023/02/10 05:40:08;;;;;;;36.20;19.27;;;;;;;-2.50;59.40;99549.44;10499661;28;20044;-76
2023/02/10 05:45:29;;;;;;;35.08;17.70;;;;;;;-2.54;59.46;99557.03;10480285;28;20535;-76
2023/02/10 05:50:51;;;;;;;35.63;17.95;;;;;;;-2.58;59.25;99559.19;10456943;28;20055;-77
2023/02/10 05:56:12;;;;;;;38.33;18.98;;;;;;;-2.64;60.35;99551.59;10458205;28;20052;-77
2023/02/10 06:01:33;;;;;;;36.38;19.35;;;;;;;-2.64;59.76;99561.78;10474629;28;20036;-77
2023/02/10 06:06:54;;;;;;;38.00;18.88;;;;;;;-2.70;60.14;99580.81;10483113;28;20109;-77
2023/02/10 06:12:15;;;;;;;38.53;21.00;;;;;;;-2.70;60.49;99580.81;10498884;28;20048;-77
2023/02/10 06:17:36;;;;;;;36.38;19.15;;;;;;;-2.63;60.34;99576.97;10498514;28;20044;-77
2023/02/10 06:22:58;;;;;;;39.90;20.40;;;;;;;-2.53;60.82;99577.69;10498073;28;20534;-77
2023/02/10 06:28:24;;;;;;;35.78;18.73;;;;;;;-2.43;59.33;99573.72;10498006;28;20044;-76
2023/02/10 06:33:45;;;;;;;37.47;20.13;;;;;;;-2.29;59.51;99572.28;10469125;28;20044;-77
2023/02/10 06:39:06;;;;;;;38.70;20.70;;;;;;;-1.50;59.05;99583.66;10503929;28;20047;-77
2023/02/10 06:44:27;;;;;;;35.80;20.40;;;;;;;0.19;56.79;99574.94;10483482;28;20059;-77
2023/02/10 06:49:47;;;;;;;37.88;21.48;;;;;;;1.99;54.63;99580.84;10488201;28;20462;-77
2023/02/10 06:55:08;;;;;;;33.72;18.77;;;;;;;3.70;52.72;99588.53;10507735;28;20136;-77
2023/02/10 07:00:31;;;;;;;31.90;19.00;;;;;;;5.08;49.86;99601.63;10483181;28;20036;-77
2023/02/10 07:05:52;;;;;;;33.53;21.08;;;;;;;6.48;49.18;99608.00;10504743;28;20060;-77
2023/02/10 07:11:13;;;;;;;38.70;22.40;;;;;;;8.43;46.93;99601.44;10496728;28;20078;-77
2023/02/10 07:16:34;;;;;;;42.17;25.17;;;;;;;10.21;42.36;99618.09;10523955;28;20109;-75
2023/02/10 07:21:55;;;;;;;38.17;23.70;;;;;;;9.77;42.08;99625.56;10514302;28;20040;-75
2023/02/10 07:27:16;;;;;;;35.45;23.25;;;;;;;9.25;41.92;99634.91;10509414;28;20040;-75
2023/02/10 07:32:36;;;;;;;30.90;21.27;;;;;;;7.38;41.45;99626.97;10496487;28;20435;-74
2023/02/10 07:37:57;;;;;;;37.03;22.70;;;;;;;4.94;42.06;99626.88;10468667;28;20045;-75
2023/02/10 07:43:18;;;;;;;36.60;22.05;;;;;;;3.71;45.24;99653.56;10497515;28;20058;-74
2023/02/10 07:48:48;;;;;;;38.60;22.52;;;;;;;3.08;46.19;99634.66;10493546;28;20039;-75
2023/02/10 07:54:09;;;;;;;35.67;21.10;;;;;;;2.68;46.21;99641.31;10526009;28;20043;-75
2023/02/10 07:59:30;;;;;;;32.78;20.42;;;;;;;2.47;46.68;99651.75;10489812;28;20204;-77
2023/02/10 08:04:54;;;;;;;36.72;21.30;;;;;;;2.31;47.08;99649.66;10489289;28;20068;-77
2023/02/10 08:10:14;;;;;;;34.10;21.42;;;;;;;2.36;47.18;99665.47;10461713;28;20477;-77
2023/02/10 08:15:35;;;;;;;38.72;20.75;;;;;;;2.59;47.19;99660.81;10461141;28;20036;-77
2023/02/10 08:20:58;;;;;;;33.33;19.63;;;;;;;2.71;47.07;99653.38;10474859;28;20052;-77
2023/02/10 08:26:20;;;;;;;34.77;20.57;;;;;;;3.35;45.43;99671.09;10511488;28;20051;-77
2023/02/10 08:31:41;;;;;;;33.72;20.10;;;;;;;3.27;45.57;99670.84;10477577;28;20052;-77
2023/02/10 08:37:02;;;;;;;32.33;19.38;;;;;;;2.79;45.94;99659.91;10473424;28;20064;-77
2023/02/10 08:42:23;;;;;;;37.78;21.73;;;;;;;2.71;46.85;99656.13;10446898;28;20036;-77
2023/02/10 08:47:44;;;;;;;34.00;20.63;;;;;;;2.72;46.71;99647.34;10474238;28;20045;-78
2023/02/10 08:53:05;;;;;;;35.25;20.20;;;;;;;2.84;46.86;99662.69;10446442;28;20140;-77
2023/02/10 08:58:27;;;;;;;38.70;21.52;;;;;;;2.77;46.82;99673.44;10459869;28;20052;-77
2023/02/10 09:03:48;;;;;;;35.33;19.77;;;;;;;2.65;47.52;99683.66;10472536;28;20075;-78
2023/02/10 09:09:12;;;;;;;34.45;20.23;;;;;;;2.56;46.94;99703.94;10459746;28;20536;-77
2023/02/10 09:14:33;;;;;;;34.45;19.65;;;;;;;2.59;47.53;99722.22;10446305;28;20048;-78
2023/02/10 09:19:53;;;;;;;35.65;20.27;;;;;;;2.50;47.74;99716.16;10445136;28;20074;-78
2023/02/10 09:25:15;;;;;;;40.20;21.80;;;;;;;2.42;48.12;99706.88;10459021;28;20364;-77
2023/02/10 09:30:36;;;;;;;36.20;20.77;;;;;;;2.46;48.08;99688.09;10444790;28;20051;-77
2023/02/10 09:35:57;;;;;;;32.58;19.42;;;;;;;2.74;48.04;99704.78;10458640;28;20040;-77
2023/02/10 09:41:36;;;;;;;37.42;21.75;;;;;;;3.33;47.50;99709.50;10447601;28;20044;-78
2023/02/10 09:47:09;;;;;;;40.95;22.92;;;;;;;4.24;46.46;99706.28;10536072;28;20044;-77
2023/02/10 09:52:52;;;;;;;38.42;22.42;;;;;;;4.15;45.73;99712.84;10485687;28;20067;-78
2023/02/10 09:58:45;;;;;;;37.22;20.40;;;;;;;3.99;46.67;99717.13;10484999;28;20040;-78
2023/02/10 10:04:10;;;;;;;35.50;21.83;;;;;;;3.46;47.17;99709.78;10471281;28;20060;-78
2023/02/10 10:09:41;;;;;;;36.03;21.63;;;;;;;3.26;48.06;99710.72;10470565;28;20090;-77
2023/02/10 10:15:04;;;;;;;41.17;23.17;;;;;;;3.47;48.26;99711.28;10469361;28;20049;-77
2023/02/10 10:20:51;;;;;;;35.40;21.73;;;;;;;4.06;47.44;99709.59;10470590;28;20402;-76
2023/02/10 10:26:15;;;;;;;36.55;21.55;;;;;;;4.12;46.94;99713.84;10483992;28;20106;-77
2023/02/10 10:32:17;;;;;;;35.42;20.98;;;;;;;4.58;46.81;99710.50;10472056;28;20049;-76
2023/02/10 10:37:38;;;;;;;33.13;20.10;;;;;;;4.80;46.53;99718.00;10506361;28;20044;-77
2023/02/10 10:42:59;;;;;;;32.58;20.02;;;;;;;4.61;46.56;99722.56;10511048;28;20044;-77
2023/02/10 10:48:26;;;;;;;34.03;21.52;;;;;;;4.70;46.58;99711.22;10511495;28;20044;-77
2023/02/10 10:53:52;;;;;;;40.40;21.90;;;;;;;4.82;46.86;99707.16;10497080;28;20044;-74
2023/02/10 10:59:18;;;;;;;38.53;21.63;;;;;;;4.62;46.30;99710.25;10480356;28;20594;-78
2023/02/10 11:04:42;;;;;;;41.00;22.48;;;;;;;4.37;46.56;99708.56;10495671;28;20063;-79
2023/02/10 11:10:03;;;;;;;36.57;21.77;;;;;;;4.28;47.17;99704.03;10509221;28;20043;-79
2023/02/10 11:15:30;;;;;;;35.85;21.95;;;;;;;4.34;47.44;99704.03;10494080;28;20077;-75
2023/02/10 11:21:02;;;;;;;40.50;23.15;;;;;;;4.54;47.41;99703.75;10520524;28;20082;-75
2023/02/10 11:26:24;;;;;;;36.53;21.98;;;;;;;4.96;47.56;99718.47;10524108;28;20066;-72
2023/02/10 11:31:45;;;;;;;35.20;22.17;;;;;;;5.18;46.58;99699.72;10489799;28;20062;-76
2023/02/10 11:37:18;;;;;;;33.03;20.00;;;;;;;5.41;46.90;99699.63;10485899;28;20089;-75
2023/02/10 11:42:39;;;;;;;34.10;21.10;;;;;;;5.87;46.50;99701.53;10505278;28;20394;-73
2023/02/10 11:48:04;;;;;;;36.42;21.33;;;;;;;6.26;45.87;99692.19;10475782;28;20402;-77
2023/02/10 11:53:28;;;;;;;33.72;20.42;;;;;;;6.20;45.66;99683.91;10490818;28;20036;-78
2023/02/10 11:59:03;;;;;;;35.60;20.90;;;;;;;6.41;44.72;99692.53;10463475;28;20037;-77
2023/02/10 12:04:33;;;;;;;35.83;21.27;;;;;;;6.28;45.01;99684.84;10497948;28;20067;-77
2023/02/10 12:10:20;;;;;;;31.05;19.58;;;;;;;6.47;44.95;99690.47;10531824;28;20060;-77
2023/02/10 12:16:06;;;;;;;36.00;21.75;;;;;;;6.46;44.58;99686.16;10533334;28;20044;-77
2023/02/10 12:21:46;;;;;;;31.70;19.95;;;;;;;6.17;44.89;99690.47;10547797;28;20051;-77
2023/02/10 12:27:21;;;;;;;35.78;21.83;;;;;;;6.08;44.91;99676.19;10516473;28;20486;-77
2023/02/10 12:32:59;;;;;;;35.65;21.20;;;;;;;6.13;45.15;99664.31;10516301;28;20402;-77
2023/02/10 12:38:32;;;;;;;34.17;20.30;;;;;;;6.57;44.86;99671.44;10529608;28;20047;-77
2023/02/10 12:44:14;;;;;;;34.40;20.07;;;;;;;7.04;43.68;99663.53;10503045;28;20040;-77
2023/02/10 12:49:58;;;;;;;35.80;21.52;;;;;;;6.95;43.74;99650.06;10502359;28;20044;-78
2023/02/10 12:55:24;;;;;;;31.92;19.88;;;;;;;7.31;43.91;99647.03;10515542;28;20044;-78
2023/02/10 13:00:57;;;;;;;33.70;20.08;;;;;;;7.41;43.39;99640.56;10516004;28;20044;-78
2023/02/10 13:06:33;;;;;;;34.25;20.75;;;;;;;7.59;43.15;99632.72;10502046;28;20052;-78
2023/02/10 13:12:13;;;;;;;32.75;20.27;;;;;;;7.54;42.77;99651.00;10515829;28;20055;-78
2023/02/10 13:17:43;;;;;;;33.38;21.20;;;;;;;7.37;42.81;99650.47;10529133;28;20047;-77
2023/02/10 13:23:06;;;;;;;32.47;19.95;;;;;;;7.69;42.99;99648.47;10501288;28;20048;-77
2023/02/10 13:28:54;;;;;;;29.67;19.05;;;;;;;7.00;42.81;99662.34;10513370;28;20044;-77
2023/02/10 13:34:23;;;;;;;34.33;19.17;;;;;;;6.81;44.20;99651.22;10511414;28;20059;-77
2023/02/10 13:39:53;;;;;;;31.15;19.88;;;;;;;6.63;43.57;99643.63;10482034;28;20052;-75
2023/02/10 13:45:24;;;;;;;32.03;19.65;;;;;;;6.66;44.12;99643.34;10498034;28;20051;-74
2023/02/10 13:50:52;;;;;;;28.88;16.98;;;;;;;6.75;43.91;99647.75;10498702;28;20478;-74
2023/02/10 13:56:17;;;;;;;29.05;17.95;;;;;;;6.86;43.91;99644.88;10500280;28;20520;-76
2023/02/10 14:01:42;;;;;;;29.40;17.15;;;;;;;6.84;43.75;99650.91;10526505;28;20044;-77
2023/02/10 14:07:15;;;;;;;28.30;17.20;;;;;;;6.73;43.72;99651.06;10467480;28;20052;-78
2023/02/10 14:12:36;;;;;;;27.00;17.15;;;;;;;6.77;43.35;99656.34;10459007;28;20041;-78
2023/02/10 14:18:01;;;;;;;33.28;18.95;;;;;;;6.54;43.87;99662.13;10453892;28;20461;-77
2023/02/10 14:23:22;;;;;;;33.88;17.83;;;;;;;6.47;43.84;99651.63;10461305;28;20070;-76
2023/02/10 14:28:47;;;;;;;32.50;19.25;;;;;;;6.47;44.07;99646.09;10465980;28;20048;-76
2023/02/10 14:34:26;;;;;;;26.17;16.83;;;;;;;6.37;44.12;99653.25;10436294;28;20186;-74
2023/02/10 14:39:58;;;;;;;25.95;15.68;;;;;;;6.18;44.13;99646.91;10442138;28;20045;-74
2023/02/10 14:45:25;;;;;;;29.52;17.77;;;;;;;5.95;44.11;99649.84;10426849;28;20040;-74
2023/02/10 14:50:46;;;;;;;29.90;17.55;;;;;;;5.75;44.37;99633.63;10453161;28;20048;-76
2023/02/10 14:56:18;;;;;;;30.70;17.25;;;;;;;5.60;44.84;99641.56;10481704;28;20463;-76
2023/02/10 15:01:41;;;;;;;29.58;17.33;;;;;;;5.33;45.26;99637.72;10467533;28;20069;-76
2023/02/10 15:07:06;;;;;;;31.92;18.40;;;;;;;5.08;45.31;99639.63;10459600;28;20044;-75
2023/02/10 15:12:27;;;;;;;33.85;19.88;;;;;;;4.96;45.75;99635.44;10508543;28;20044;-75
2023/02/10 15:17:52;;;;;;;34.00;19.67;;;;;;;4.78;46.62;99637.50;10476109;28;20040;-74
2023/02/10 15:23:15;;;;;;;35.33;19.50;;;;;;;4.65;46.44;99633.81;10501880;28;20040;-75
2023/02/10 15:29:11;;;;;;;34.75;19.65;;;;;;;4.43;47.03;99638.13;10483044;28;20335;-76
2023/02/10 15:34:32;;;;;;;33.90;18.60;;;;;;;4.21;47.01;99640.97;10503938;28;20225;-74
2023/02/10 15:39:56;;;;;;;44.92;19.98;;;;;;;4.08;47.68;99641.50;10474409;28;20074;-76
2023/02/10 15:45:17;;;;;;;36.70;20.30;;;;;;;4.01;48.13;99639.25;10469836;28;20045;-76
2023/02/10 15:50:38;;;;;;;31.83;17.60;;;;;;;3.85;47.64;99626.94;10471078;28;20335;-76
2023/02/10 15:56:00;;;;;;;36.45;20.10;;;;;;;3.69;48.35;99634.00;10495437;28;20488;-73
2023/02/10 16:01:21;;;;;;;33.60;18.38;;;;;;;3.44;49.42;99646.03;10486180;28;20052;-73
2023/02/10 16:06:42;;;;;;;37.65;17.30;;;;;;;3.24;49.76;99649.00;10472356;28;20052;-75
2023/02/10 16:12:03;;;;;;;35.58;18.27;;;;;;;3.04;49.39;99639.69;10488353;28;20504;-75
2023/02/10 16:17:26;;;;;;;36.83;18.88;;;;;;;2.86;50.37;99637.38;10501612;28;20516;-76
2023/02/10 16:22:47;;;;;;;33.15;17.40;;;;;;;2.72;50.46;99641.09;10504781;28;20036;-76
2023/02/10 16:28:09;;;;;;;33.47;18.98;;;;;;;2.57;51.24;99638.50;10502164;28;20102;-76
2023/02/10 16:33:31;;;;;;;36.97;18.52;;;;;;;2.42;51.34;99633.19;10516353;28;20044;-77
2023/02/10 16:38:52;;;;;;;40.63;20.65;;;;;;;2.38;52.93;99631.91;10488284;28;20044;-76
2023/02/10 16:44:22;;;;;;;38.92;20.30;;;;;;;2.23;52.78;99646.63;10517777;28;20086;-77
2023/02/10 16:49:44;;;;;;;43.50;23.40;;;;;;;2.15;53.50;99636.53;10529612;28;20413;-76
2023/02/10 16:55:06;;;;;;;40.53;22.33;;;;;;;2.07;53.43;99627.22;10515876;28;20047;-77
2023/02/10 17:00:28;;;;;;;39.13;22.05;;;;;;;1.99;55.01;99624.91;10523173;28;20110;-74
2023/02/10 17:05:49;;;;;;;38.13;21.15;;;;;;;1.93;54.41;99632.41;10508337;28;20131;-75
2023/02/10 17:11:10;;;;;;;38.53;22.20;;;;;;;1.90;54.67;99622.34;10515103;28;20040;-75
2023/02/10 17:16:34;;;;;;;40.70;21.90;;;;;;;1.87;53.94;99626.09;10514621;28;20105;-75
2023/02/10 17:21:55;;;;;;;40.73;21.87;;;;;;;1.83;55.34;99622.78;10528082;28;20036;-75
2023/02/10 17:27:16;;;;;;;42.50;21.30;;;;;;;1.77;54.17;99629.53;10527238;28;20040;-75
2023/02/10 17:32:39;;;;;;;44.20;21.95;;;;;;;1.69;55.47;99623.72;10500055;28;20044;-74
2023/02/10 17:43:40;;;;;;;40.55;21.10;;;;;;;1.52;56.09;99631.81;10541399;28;20040;-75
2023/02/10 17:49:00;;;;;;;39.17;21.88;;;;;;;1.46;56.58;99628.28;10503420;28;20047;-75
2023/02/10 17:54:21;;;;;;;37.70;20.05;;;;;;;1.46;56.44;99633.03;10530908;28;20072;-76
2023/02/10 17:59:42;;;;;;;38.28;19.88;;;;;;;1.49;56.00;99632.06;10510919;28;20036;-75
2023/02/10 18:05:04;;;;;;;32.13;17.75;;;;;;;1.52;56.42;99631.81;10514451;28;20048;-77
2023/02/10 18:10:28;;;;;;;37.10;19.35;;;;;;;1.56;56.10;99642.63;10506119;28;20047;-76
2023/02/10 18:15:49;;;;;;;33.30;17.23;;;;;;;1.59;56.11;99647.91;10510109;28;20047;-76
2023/02/10 18:21:15;;;;;;;38.03;19.02;;;;;;;1.61;55.89;99647.41;10511303;28;20052;-77
2023/02/10 18:26:37;;;;;;;33.30;16.73;;;;;;;1.60;55.93;99649.41;10510100;28;20102;-77
2023/02/10 18:32:00;;;;;;;37.50;19.43;;;;;;;1.61;56.46;99650.16;10525181;28;20093;-77
2023/02/10 18:37:22;;;;;;;34.85;18.55;;;;;;;1.65;56.41;99647.97;10508077;28;20097;-76
2023/02/10 18:42:43;;;;;;;32.10;18.48;;;;;;;1.66;55.94;99641.97;10510618;28;20044;-75
2023/02/10 18:48:06;;;;;;;33.92;19.17;;;;;;;1.67;56.26;99645.47;10511181;28;20040;-75
2023/02/10 18:53:27;;;;;;;37.03;19.00;;;;;;;1.68;56.59;99652.47;10524490;28;20048;-74
2023/02/10 18:58:48;;;;;;;34.95;17.55;;;;;;;1.71;56.61;99648.75;10515003;28;20043;-75
2023/02/10 19:04:09;;;;;;;34.75;18.75;;;;;;;1.68;56.45;99658.00;10526416;28;20067;-76
2023/02/10 19:09:30;;;;;;;37.70;19.92;;;;;;;1.65;56.75;99645.22;10527727;28;20052;-75
2023/02/10 19:15:00;;;;;;;33.75;18.33;;;;;;;1.55;56.99;99652.88;10518568;28;20043;-75
2023/02/10 19:20:21;;;;;;;33.65;17.98;;;;;;;1.48;57.48;99658.06;10544590;28;20036;-76
2023/02/10 19:25:43;;;;;;;37.53;19.83;;;;;;;1.41;57.49;99651.75;10530818;28;20618;-77
2023/02/10 19:31:06;;;;;;;34.92;18.63;;;;;;;1.38;57.48;99660.97;10530961;28;20063;-78
2023/02/10 19:36:27;;;;;;;34.03;19.08;;;;;;;1.32;57.89;99656.66;10519503;28;20469;-77
2023/02/10 19:41:48;;;;;;;36.45;19.10;;;;;;;1.27;58.20;99665.63;10516957;28;20051;-77
2023/02/10 19:47:09;;;;;;;31.42;17.67;;;;;;;1.24;57.91;99645.31;10547446;28;20542;-78
2023/02/10 19:52:30;;;;;;;35.55;18.80;;;;;;;1.19;58.31;99645.28;10508489;28;20450;-77
2023/02/10 19:57:54;;;;;;;35.93;20.23;;;;;;;1.13;59.41;99642.47;10538561;28;20050;-76
2023/02/10 20:03:15;;;;;;;36.22;19.33;;;;;;;1.12;58.40;99643.72;10546011;28;20062;-77
2023/02/10 20:08:36;;;;;;;38.42;18.58;;;;;;;1.09;59.30;99639.19;10537733;28;20088;-76
2023/02/10 20:13:57;;;;;;;31.77;17.77;;;;;;;1.08;59.04;99627.44;10506068;28;20413;-77
2023/02/10 20:19:18;;;;;;;35.95;17.38;;;;;;;1.09;59.61;99628.19;10500502;28;20047;-76
2023/02/10 20:24:39;;;;;;;33.35;17.88;;;;;;;1.10;59.67;99615.94;10494085;28;20032;-77
2023/02/10 20:30:00;;;;;;;35.45;17.45;;;;;;;1.09;59.76;99617.19;10479530;28;20044;-77
2023/02/10 20:35:21;;;;;;;31.05;16.90;;;;;;;1.10;60.48;99604.94;10474351;28;20082;-77
2023/02/10 20:40:42;;;;;;;31.48;16.42;;;;;;;1.17;60.13;99593.50;10474189;28;20445;-77
2023/02/10 20:46:03;;;;;;;31.27;16.55;;;;;;;1.15;60.64;99587.72;10474668;28;20039;-77
2023/02/10 20:51:25;;;;;;;29.30;15.57;;;;;;;1.11;61.04;99576.94;10474395;28;20114;-77
2023/02/10 20:56:46;;;;;;;29.25;16.90;;;;;;;1.06;60.31;99568.63;10467199;28;20044;-75
2023/02/10 21:02:08;;;;;;;29.80;15.95;;;;;;;1.00;60.69;99570.59;10458805;28;20060;-75
2023/02/10 21:07:32;;;;;;;31.27;17.40;;;;;;;1.02;60.88;99562.59;10472431;28;20486;-75
2023/02/10 21:12:54;;;;;;;31.55;17.65;;;;;;;1.12;60.68;99556.44;10460049;28;20049;-75
2023/02/10 21:18:15;;;;;;;33.20;18.48;;;;;;;1.21;60.73;99541.75;10459196;28;20044;-74
2023/02/10 21:23:36;;;;;;;32.92;18.58;;;;;;;1.26;60.38;99537.56;10458889;28;20040;-74
2023/02/10 21:28:59;;;;;;;35.67;19.60;;;;;;;1.23;60.89;99536.53;10458662;28;20403;-74
2023/02/10 21:34:21;;;;;;;31.92;18.25;;;;;;;1.21;60.86;99538.25;10446584;28;20048;-74
2023/02/10 21:39:46;;;;;;;;;;;;;;;1.09;61.07;99531.91;10473593;28;20052;-74
2023/02/10 21:45:07;;;;;;;34.50;17.10;;;;;;;0.98;61.37;99534.56;10473813;28;19924;-73
2023/02/10 21:50:28;;;;;;;34.95;19.75;;;;;;;0.88;61.06;99530.47;10487203;28;20485;-74
2023/02/10 21:55:49;;;;;;;34.33;18.38;;;;;;;0.81;61.72;99526.16;10496374;28;20036;-74
2023/02/10 22:01:11;;;;;;;32.40;16.90;;;;;;;0.66;61.70;99526.25;10498299;28;20040;-74
2023/02/10 22:06:33;;;;;;;36.95;19.05;;;;;;;0.53;61.63;99523.13;10511377;28;20048;-74
2023/02/10 22:11:56;;;;;;;42.93;21.47;;;;;;;0.45;62.19;99520.03;10512220;28;20036;-73
2023/02/10 22:17:51;;;;;;;36.92;18.77;;;;;;;0.37;62.25;99524.44;10527933;28;20043;-74
2023/02/10 22:23:12;;;;;;;34.08;19.13;;;;;;;0.27;62.68;99523.81;10468648;28;20071;-73
2023/02/10 22:28:33;;;;;;;34.72;17.60;;;;;;;0.26;63.09;99527.81;10467836;28;20475;-73
2023/02/10 22:33:57;;;;;;;34.00;17.95;;;;;;;0.19;62.59;99522.75;10470635;28;20052;-73
2023/02/10 22:39:17;;;;;;;35.95;18.45;;;;;;;0.14;62.89;99526.19;10484009;28;20466;-73
2023/02/10 22:44:40;;;;;;;35.33;20.08;;;;;;;0.11;63.45;99529.13;10456017;28;20101;-73
2023/02/10 22:50:03;;;;;;;30.80;16.15;;;;;;;0.18;63.39;99520.47;10483844;28;20048;-73
2023/02/10 22:55:24;;;;;;;30.63;16.70;;;;;;;0.20;63.62;99513.28;10483774;28;20463;-73
2023/02/10 23:00:45;;;;;;;31.67;17.42;;;;;;;0.27;64.15;99518.34;10469641;28;20040;-73
2023/02/10 23:06:06;;;;;;;34.83;19.17;;;;;;;0.30;63.88;99518.63;10454998;28;20494;-73
2023/02/10 23:11:30;;;;;;;30.08;16.98;;;;;;;0.27;63.96;99506.59;10457713;28;20044;-74
2023/02/10 23:16:52;;;;;;;31.55;16.83;;;;;;;0.23;63.92;99514.31;10508260;28;20066;-73
2023/02/10 23:22:13;;;;;;;30.42;16.90;;;;;;;0.26;64.42;99508.59;10494403;28;20044;-74
2023/02/10 23:27:35;;;;;;;35.83;17.55;;;;;;;0.27;64.89;99499.09;10482930;28;20048;-74
2023/02/10 23:32:56;;;;;;;30.23;16.83;;;;;;;0.31;64.68;99490.66;10491924;28;20402;-73
2023/02/10 23:38:18;;;;;;;30.58;16.35;;;;;;;0.29;65.01;99498.66;10477330;28;20049;-74
2023/02/10 23:43:39;;;;;;;32.75;17.33;;;;;;;0.30;65.20;99477.44;10477040;28;20087;-73
2023/02/10 23:49:00;;;;;;;34.20;17.40;;;;;;;0.36;65.09;99478.22;10477001;28;20052;-73
2023/02/10 23:54:21;;;;;;;34.05;16.40;;;;;;;0.39;64.94;99469.78;10476232;28;20037;-73
2023/02/10 23:59:42;;;;;;;29.63;16.13;;;;;;;0.42;65.32;99479.03;10476159;28;20521;-73
